Time;durP1;ratioP1;P1;durP2;ratioP2;P2;SDS_P1;SDS_P2;PMS_P1;PMS_P2;Temp;Humidity;BMP_temperature;BMP_pressure;BME280_temperature;BME280_humidity;BME280_pressure;Samples;Min_cycle;Max_cycle;Signal;HPM_P1;HPM_P2
2022/06/23 00:01:04;;;;;;;5.30;3.70;;;17.10;82.60;;;;;;5008740;28;20104;-45
2022/06/23 00:03:34;;;;;;;4.40;3.95;;;17.00;83.00;;;;;;5009989;28;20056;-46
2022/06/23 00:06:03;;;;;;;5.72;4.40;;;16.90;83.70;;;;;;5009680;28;20076;-44
2022/06/23 00:08:28;;;;;;;6.78;4.65;;;16.90;84.70;;;;;;5009975;28;20049;-49
2022/06/23 00:10:57;;;;;;;6.68;3.95;;;16.90;85.70;;;;;;5008302;28;20495;-47
2022/06/23 00:13:31;;;;;;;4.85;4.07;;;16.90;86.70;;;;;;5009473;28;20356;-45
2022/06/23 00:15:57;;;;;;;6.25;4.43;;;16.80;87.60;;;;;;5009074;28;20040;-45
2022/06/23 00:18:26;;;;;;;6.15;4.40;;;16.80;88.90;;;;;;5008079;28;20026;-46
2022/06/23 00:20:57;;;;;;;8.25;4.82;;;16.70;90.10;;;;;;5006948;28;20550;-48
2022/06/23 00:23:30;;;;;;;6.22;4.70;;;16.60;91.00;;;;;;5009097;28;20395;-48
2022/06/23 00:26:00;;;;;;;6.28;4.47;;;16.60;92.10;;;;;;5009086;28;20026;-47
2022/06/23 00:28:31;;;;;;;7.50;4.50;;;16.50;93.10;;;;;;5009246;28;20022;-46
2022/06/23 00:31:00;;;;;;;5.70;4.30;;;16.50;94.00;;;;;;5007376;28;20165;-45
2022/06/23 00:33:38;;;;;;;6.38;4.65;;;16.40;94.60;;;;;;5007938;28;20033;-45
2022/06/23 00:36:33;;;;;;;7.35;4.60;;;16.30;95.70;;;;;;5009150;28;20030;-45
2022/06/23 00:38:58;;;;;;;4.97;4.55;;;16.30;97.10;;;;;;5009351;28;20034;-47
2022/06/23 00:41:29;;;;;;;6.00;4.60;;;16.20;98.30;;;;;;5008508;28;20167;-46
2022/06/23 00:44:00;;;;;;;6.65;4.95;;;16.20;99.20;;;;;;5008799;28;20030;-45
2022/06/23 00:46:32;;;;;;;6.43;4.50;;;16.10;99.50;;;;;;5008678;28;20033;-44
2022/06/23 00:49:26;;;;;;;6.60;4.80;;;16.10;99.90;;;;;;5009131;28;20033;-46
2022/06/23 00:51:56;;;;;;;7.30;4.85;;;16.10;99.90;;;;;;5008418;28;20072;-44
2022/06/23 00:54:32;;;;;;;5.40;4.90;;;16.10;99.90;;;;;;5009100;28;20038;-44
2022/06/23 00:57:08;;;;;;;6.63;5.15;;;16.00;99.90;;;;;;5008902;28;20427;-46
2022/06/23 00:59:36;;;;;;;6.28;4.93;;;16.00;99.90;;;;;;5008340;28;20026;-47
2022/06/23 01:02:13;;;;;;;5.32;4.43;;;15.90;99.90;;;;;;4990819;28;20045;-44
2022/06/23 01:04:47;;;;;;;6.72;5.28;;;15.90;99.90;;;;;;5008850;28;20061;-45
2022/06/23 01:07:45;;;;;;;8.32;5.60;;;15.80;99.90;;;;;;5009065;28;20056;-49
2022/06/23 01:10:39;;;;;;;10.70;5.35;;;15.80;99.90;;;;;;5008424;28;20038;-45
2022/06/23 01:13:07;;;;;;;9.70;5.07;;;15.80;99.90;;;;;;5009327;28;20022;-45
2022/06/23 01:15:41;;;;;;;7.78;5.68;;;15.80;99.90;;;;;;5008830;28;20093;-48
2022/06/23 01:18:24;;;;;;;6.88;5.13;;;15.80;99.90;;;;;;5008988;28;20061;-44
2022/06/23 01:21:06;;;;;;;6.55;4.78;;;15.70;99.90;;;;;;5008089;28;20026;-47
2022/06/23 01:23:53;;;;;;;6.63;4.90;;;15.70;99.90;;;;;;5008669;28;20155;-46
2022/06/23 01:26:46;;;;;;;8.73;5.75;;;15.70;99.90;;;;;;5008567;28;20029;-46
2022/06/23 01:29:35;;;;;;;6.88;5.50;;;15.60;99.90;;;;;;5007436;28;20046;-43
2022/06/23 01:32:06;;;;;;;5.80;5.20;;;15.50;99.90;;;;;;5008095;28;20169;-47
2022/06/23 01:34:54;;;;;;;5.25;4.55;;;15.60;99.90;;;;;;5008716;28;20037;-45
2022/06/23 01:37:34;;;;;;;9.60;5.53;;;15.50;99.90;;;;;;5008993;28;20188;-46
2022/06/23 01:40:16;;;;;;;9.57;6.00;;;15.50;99.90;;;;;;5006898;28;20036;-47
2022/06/23 01:43:09;;;;;;;7.22;5.40;;;15.50;99.90;;;;;;5007490;28;20030;-43
2022/06/23 01:45:39;;;;;;;7.88;5.75;;;15.50;99.90;;;;;;5008786;28;20033;-43
2022/06/23 01:48:08;;;;;;;7.45;5.03;;;15.50;99.90;;;;;;5008939;28;20031;-44
2022/06/23 01:50:56;;;;;;;6.25;5.35;;;15.50;99.90;;;;;;5008136;28;20029;-44
2022/06/23 01:53:29;;;;;;;6.07;5.40;;;15.50;99.90;;;;;;5007298;28;20030;-45
2022/06/23 01:56:26;;;;;;;6.53;5.60;;;15.50;99.90;;;;;;5009006;28;20491;-44
2022/06/23 01:59:17;;;;;;;8.25;5.30;;;15.40;99.90;;;;;;5012083;28;20109;-43
2022/06/23 02:01:45;;;;;;;6.22;5.45;;;15.40;99.90;;;;;;5016784;28;20030;-43
2022/06/23 02:04:19;;;;;;;10.38;6.00;;;15.30;99.90;;;;;;5021707;28;20045;-44
2022/06/23 02:06:53;;;;;;;6.70;5.63;;;15.40;99.90;;;;;;5031573;28;20386;-45
2022/06/23 02:09:27;;;;;;;11.60;5.82;;;15.40;99.90;;;;;;5030056;28;20036;-45
2022/06/23 02:11:53;;;;;;;7.88;5.30;;;15.40;99.90;;;;;;5029417;28;20482;-45
2022/06/23 02:14:43;;;;;;;8.40;5.85;;;15.40;99.90;;;;;;5028360;28;20069;-45
2022/06/23 02:17:17;;;;;;;10.30;6.18;;;15.30;99.90;;;;;;5017083;28;20034;-44
2022/06/23 02:19:49;;;;;;;6.03;5.05;;;15.30;99.90;;;;;;5017893;28;20029;-45
2022/06/23 02:22:31;;;;;;;9.95;5.65;;;15.30;99.90;;;;;;5022026;28;20022;-45
2022/06/23 02:25:25;;;;;;;7.95;5.40;;;15.10;99.90;;;;;;5023847;28;20040;-44
2022/06/23 02:28:03;;;;;;;6.93;5.45;;;15.10;99.90;;;;;;5021439;28;20022;-45
2022/06/23 02:30:38;;;;;;;8.32;5.63;;;15.00;99.90;;;;;;5017079;28;20077;-45
2022/06/23 02:33:21;;;;;;;7.88;5.63;;;14.90;99.90;;;;;;5019717;28;20417;-44
2022/06/23 02:35:51;;;;;;;7.65;5.72;;;14.80;99.90;;;;;;5022190;28;20026;-45
2022/06/23 02:38:30;;;;;;;6.18;5.28;;;14.80;99.90;;;;;;5020608;28;20499;-44
2022/06/23 02:41:15;;;;;;;7.93;5.15;;;14.70;99.90;;;;;;5022693;28;20034;-44
2022/06/23 02:44:14;;;;;;;10.32;5.45;;;14.70;99.90;;;;;;5021826;28;20462;-45
2022/06/23 02:47:04;;;;;;;10.80;5.50;;;14.70;99.90;;;;;;5028004;28;20597;-45
2022/06/23 02:49:55;;;;;;;6.13;5.10;;;14.70;99.90;;;;;;5030636;28;20112;-45
2022/06/23 02:52:55;;;;;;;6.80;6.07;;;14.70;99.90;;;;;;5021911;28;20034;-45
2022/06/23 02:55:56;;;;;;;6.03;5.30;;;14.60;99.90;;;;;;5010612;28;20041;-44
2022/06/23 02:58:45;;;;;;;8.32;5.40;;;14.50;99.90;;;;;;5009715;28;20022;-45
2022/06/23 03:01:27;;;;;;;7.10;5.47;;;14.40;99.90;;;;;;5008943;28;20487;-45
2022/06/23 03:04:10;;;;;;;8.40;5.57;;;14.40;99.90;;;;;;5010807;28;20115;-45
2022/06/23 03:06:45;;;;;;;10.98;6.53;;;14.50;99.90;;;;;;5010740;28;20033;-45
2022/06/23 03:09:18;;;;;;;9.75;6.32;;;14.50;99.90;;;;;;5009913;28;20427;-47
2022/06/23 03:12:06;;;;;;;9.93;6.00;;;14.50;99.90;;;;;;5010027;28;20029;-44
2022/06/23 03:14:42;;;;;;;6.47;5.35;;;14.50;99.90;;;;;;5010524;28;20495;-45
2022/06/23 03:17:33;;;;;;;8.15;5.63;;;14.50;99.90;;;;;;5010666;28;20470;-46
2022/06/23 03:20:14;;;;;;;;;;;14.40;99.90;;;;;;5010388;28;20041;-45
2022/06/23 03:22:55;;;;;;;8.02;5.30;;;14.40;99.90;;;;;;5010510;28;19912;-46
2022/06/23 03:25:31;;;;;;;8.65;5.55;;;14.30;99.90;;;;;;5010467;28;20040;-45
2022/06/23 03:28:18;;;;;;;8.50;5.72;;;14.40;99.90;;;;;;5025490;28;20483;-45
2022/06/23 03:30:47;;;;;;;7.78;5.68;;;14.40;99.90;;;;;;5010014;28;20033;-45
2022/06/23 03:33:53;;;;;;;8.65;6.03;;;14.40;99.90;;;;;;5010252;28;20156;-45
2022/06/23 03:36:31;;;;;;;8.70;5.82;;;14.40;99.90;;;;;;4987761;28;20074;-45
2022/06/23 03:42:28;;;;;;;8.70;6.13;;;14.40;99.90;;;;;;5010168;28;20041;-44
2022/06/23 03:45:03;;;;;;;8.05;5.80;;;14.40;99.90;;;;;;5010079;28;20033;-45
2022/06/23 03:47:44;;;;;;;8.10;5.35;;;14.40;99.90;;;;;;5025147;28;20388;-47
2022/06/23 03:50:25;;;;;;;8.63;5.47;;;14.40;99.90;;;;;;5009269;28;20093;-45
2022/06/23 03:52:55;;;;;;;7.65;5.55;;;14.40;99.90;;;;;;5010399;28;20434;-44
2022/06/23 03:55:38;;;;;;;7.07;5.68;;;14.40;99.90;;;;;;5025026;28;20061;-48
2022/06/23 03:58:18;;;;;;;10.35;6.20;;;14.40;99.90;;;;;;5014753;28;20025;-46
2022/06/23 04:00:56;;;;;;;8.60;6.25;;;14.40;99.90;;;;;;5025566;28;20022;-45
2022/06/23 04:03:30;;;;;;;12.90;7.00;;;14.50;99.90;;;;;;5020215;28;20490;-45
2022/06/23 04:05:55;;;;;;;8.63;6.20;;;14.50;99.90;;;;;;5021555;28;20030;-45
2022/06/23 04:08:27;;;;;;;10.35;6.88;;;14.50;99.90;;;;;;5019789;28;20044;-47
2022/06/23 04:10:58;;;;;;;12.25;7.05;;;14.60;99.90;;;;;;5017980;28;20037;-46
2022/06/23 04:13:35;;;;;;;10.13;6.85;;;14.60;99.90;;;;;;5018803;28;20025;-45
2022/06/23 04:16:06;;;;;;;10.18;7.15;;;14.70;99.90;;;;;;5020238;28;20038;-45
2022/06/23 04:18:32;;;;;;;;;;;14.70;99.90;;;;;;5016948;28;20026;-43
2022/06/23 04:21:07;;;;;;;9.23;6.38;;;14.70;99.90;;;;;;5019696;28;20281;-46
2022/06/23 04:23:49;;;;;;;9.60;6.82;;;14.70;99.90;;;;;;5018077;28;20441;-44
2022/06/23 04:26:39;;;;;;;7.68;6.78;;;14.70;99.90;;;;;;5019860;28;20024;-44
2022/06/23 04:29:36;;;;;;;11.63;7.80;;;14.80;99.90;;;;;;5019724;28;20104;-44
2022/06/23 04:32:27;;;;;;;16.70;8.07;;;14.80;99.90;;;;;;5019726;28;20033;-44
2022/06/23 04:35:08;;;;;;;9.15;7.55;;;14.90;99.90;;;;;;5019604;28;20029;-43
2022/06/23 04:37:55;;;;;;;14.15;7.45;;;14.90;99.90;;;;;;5020440;28;20510;-44
2022/06/23 04:40:31;;;;;;;10.07;6.82;;;15.00;99.90;;;;;;5021218;28;20086;-44
2022/06/23 04:43:03;;;;;;;12.38;6.60;;;15.00;99.90;;;;;;5028973;28;20032;-45
2022/06/23 04:45:38;;;;;;;9.80;6.97;;;15.00;99.90;;;;;;5021275;28;20498;-47
2022/06/23 04:48:13;;;;;;;10.20;7.07;;;15.00;99.90;;;;;;5009172;28;20030;-47
2022/06/23 04:50:48;;;;;;;13.70;7.22;;;15.10;99.90;;;;;;5008412;28;20387;-44
2022/06/23 04:53:23;;;;;;;8.48;7.30;;;15.20;99.90;;;;;;5009201;28;20022;-44
2022/06/23 04:56:07;;;;;;;15.18;7.90;;;15.20;99.90;;;;;;5008955;28;20021;-46
2022/06/23 04:58:36;;;;;;;11.13;7.35;;;15.30;99.90;;;;;;5008876;28;20029;-45
2022/06/23 05:01:01;;;;;;;11.57;7.72;;;15.30;99.90;;;;;;5008709;28;20048;-45
2022/06/23 05:03:56;;;;;;;10.93;7.72;;;15.40;99.90;;;;;;5007651;28;20369;-44
2022/06/23 05:06:34;;;;;;;10.95;7.10;;;15.40;99.90;;;;;;5008541;28;20042;-44
2022/06/23 05:09:06;;;;;;;11.82;7.13;;;15.50;99.90;;;;;;5009014;28;20072;-44
2022/06/23 05:11:46;;;;;;;10.95;7.18;;;15.50;99.90;;;;;;5008411;28;20072;-45
2022/06/23 05:14:17;;;;;;;9.30;7.20;;;15.60;99.90;;;;;;5008907;28;20054;-44
2022/06/23 05:16:47;;;;;;;11.60;7.43;;;15.60;99.90;;;;;;5008814;28;20081;-45
2022/06/23 05:19:31;;;;;;;9.07;6.50;;;15.70;99.90;;;;;;5008791;28;20076;-44
2022/06/23 05:22:15;;;;;;;9.25;6.40;;;15.80;99.90;;;;;;5008753;28;20095;-44
2022/06/23 05:24:43;;;;;;;10.00;7.22;;;15.80;99.90;;;;;;5008531;28;20026;-44
2022/06/23 05:27:21;;;;;;;10.32;6.82;;;15.90;99.90;;;;;;5008548;28;20189;-44
2022/06/23 05:29:52;;;;;;;8.88;7.53;;;16.00;99.90;;;;;;5008035;28;20176;-44
2022/06/23 05:32:31;;;;;;;10.02;6.90;;;16.10;99.90;;;;;;5010297;28;20472;-43
2022/06/23 05:35:16;;;;;;;13.80;8.40;;;16.20;99.90;;;;;;5012576;28;20322;-43
2022/06/23 05:37:51;;;;;;;11.70;7.15;;;16.20;99.90;;;;;;5011316;28;20548;-43
2022/06/23 05:40:37;;;;;;;18.17;7.68;;;16.30;99.90;;;;;;5011722;28;20046;-43
2022/06/23 05:43:04;;;;;;;10.18;7.03;;;16.40;99.90;;;;;;5021052;28;20069;-45
2022/06/23 05:45:43;;;;;;;9.63;7.43;;;16.50;99.90;;;;;;5022509;28;20064;-47
2022/06/23 05:48:16;;;;;;;11.05;7.00;;;16.50;99.90;;;;;;5023341;28;20025;-48
2022/06/23 05:51:07;;;;;;;15.95;7.55;;;16.50;99.90;;;;;;5020053;28;20025;-48
2022/06/23 05:53:58;;;;;;;11.65;7.35;;;16.60;99.90;;;;;;5022327;28;20064;-48
2022/06/23 05:56:32;;;;;;;11.77;7.22;;;16.70;99.90;;;;;;5022617;28;20026;-45
2022/06/23 05:59:02;;;;;;;13.55;7.72;;;16.90;99.90;;;;;;5021293;28;20022;-45
2022/06/23 06:02:03;;;;;;;10.35;6.53;;;16.90;99.90;;;;;;5022500;28;20033;-44
2022/06/23 06:04:37;;;;;;;12.18;7.57;;;17.00;99.90;;;;;;5020376;28;20426;-49
2022/06/23 06:07:04;;;;;;;10.10;6.28;;;17.10;99.90;;;;;;5021982;28;20228;-45
2022/06/23 06:09:36;;;;;;;10.02;6.82;;;17.20;99.90;;;;;;5021726;28;20029;-45
2022/06/23 06:12:11;;;;;;;11.77;7.53;;;17.30;99.90;;;;;;5021237;28;20083;-45
2022/06/23 06:14:42;;;;;;;13.43;7.45;;;17.50;99.90;;;;;;5035976;28;20503;-44
2022/06/23 06:17:17;;;;;;;14.25;7.45;;;17.60;99.90;;;;;;5020292;28;20375;-45
2022/06/23 06:19:43;;;;;;;14.85;7.65;;;17.80;99.90;;;;;;5020454;28;20033;-45
2022/06/23 06:22:34;;;;;;;14.65;7.82;;;17.80;99.90;;;;;;5020183;28;20025;-45
2022/06/23 06:25:02;;;;;;;12.35;7.43;;;18.00;99.90;;;;;;5021730;28;20045;-45
2022/06/23 06:27:28;;;;;;;9.23;7.22;;;18.00;99.90;;;;;;5023006;28;20018;-45
2022/06/23 06:29:55;;;;;;;11.73;6.63;;;18.10;99.90;;;;;;5030211;28;20017;-44
2022/06/23 06:32:37;;;;;;;12.73;7.25;;;18.20;99.90;;;;;;5019842;28;20029;-45
2022/06/23 06:35:05;;;;;;;12.30;7.25;;;18.30;99.90;;;;;;5015208;28;20022;-45
2022/06/23 06:37:35;;;;;;;10.85;7.13;;;18.40;99.90;;;;;;5013281;28;20030;-47
2022/06/23 06:40:03;;;;;;;11.30;7.22;;;18.50;99.90;;;;;;5027358;28;20037;-46
2022/06/23 06:42:51;;;;;;;12.07;7.22;;;18.50;99.90;;;;;;5019096;28;20500;-46
2022/06/23 06:45:20;;;;;;;9.90;6.93;;;18.60;99.90;;;;;;5022934;28;20029;-46
2022/06/23 06:47:46;;;;;;;11.27;6.53;;;18.70;99.90;;;;;;5023529;28;20063;-46
2022/06/23 06:50:18;;;;;;;13.27;6.65;;;18.80;99.90;;;;;;5018872;28;20033;-45
2022/06/23 06:52:44;;;;;;;13.00;7.57;;;18.90;99.90;;;;;;5010580;28;20018;-44
2022/06/23 06:55:29;;;;;;;8.57;6.70;;;19.00;99.90;;;;;;5008520;28;20022;-45
2022/06/23 06:58:03;;;;;;;10.25;6.70;;;19.10;99.90;;;;;;5010807;28;20510;-46
2022/06/23 07:00:36;;;;;;;10.18;6.55;;;19.10;99.90;;;;;;5010050;28;20065;-44
2022/06/23 07:03:06;;;;;;;10.35;6.90;;;19.20;99.90;;;;;;5010987;28;20566;-45
2022/06/23 07:05:49;;;;;;;9.35;6.38;;;19.30;99.90;;;;;;5009679;28;20034;-44
2022/06/23 07:08:21;;;;;;;10.52;6.40;;;19.50;99.90;;;;;;5010590;28;20037;-46
2022/06/23 07:10:51;;;;;;;14.85;6.82;;;19.60;99.90;;;;;;5010213;28;20061;-44
2022/06/23 07:13:26;;;;;;;7.80;6.05;;;19.80;99.90;;;;;;5010702;28;20480;-48
2022/06/23 07:16:24;;;;;;;12.40;7.10;;;19.90;99.90;;;;;;5010454;28;20042;-47
2022/06/23 07:18:57;;;;;;;7.97;6.15;;;20.00;99.90;;;;;;5018406;28;20048;-45
2022/06/23 07:21:54;;;;;;;12.65;6.63;;;20.10;99.90;;;;;;5019962;28;20026;-45
2022/06/23 07:24:26;;;;;;;9.15;6.22;;;20.30;99.90;;;;;;5020553;28;20033;-44
2022/06/23 07:27:04;;;;;;;8.00;5.70;;;20.40;99.90;;;;;;5019483;28;20561;-46
2022/06/23 07:29:53;;;;;;;10.25;6.10;;;20.60;99.90;;;;;;5010190;28;20034;-46
2022/06/23 07:32:36;;;;;;;14.82;6.93;;;20.80;99.90;;;;;;5020454;28;20096;-45
2022/06/23 07:35:22;;;;;;;12.27;6.13;;;20.90;99.90;;;;;;5029512;28;20403;-45
2022/06/23 07:38:01;;;;;;;7.97;5.47;;;21.10;99.90;;;;;;5029483;28;20021;-44
2022/06/23 07:40:32;;;;;;;9.98;5.65;;;21.20;99.90;;;;;;5029292;28;20021;-46
2022/06/23 07:43:22;;;;;;;13.00;5.93;;;21.40;99.90;;;;;;5029744;28;20029;-45
2022/06/23 07:45:57;;;;;;;12.13;6.07;;;21.60;99.90;;;;;;5029080;28;20025;-45
2022/06/23 07:48:24;;;;;;;11.82;5.90;;;21.70;99.90;;;;;;5025640;28;20025;-45
2022/06/23 07:50:49;;;;;;;11.93;6.00;;;21.90;99.90;;;;;;5019032;28;20094;-45
2022/06/23 07:53:39;;;;;;;9.82;5.25;;;22.00;99.50;;;;;;5020425;28;20183;-44
2022/06/23 07:56:06;;;;;;;12.85;5.80;;;22.40;98.40;;;;;;5019638;28;20057;-46
2022/06/23 07:58:34;;;;;;;10.50;4.88;;;22.50;98.20;;;;;;5019245;28;20462;-45
2022/06/23 08:01:11;;;;;;;9.95;5.28;;;22.80;98.10;;;;;;5016068;28;20033;-46
2022/06/23 08:03:43;;;;;;;11.50;5.40;;;22.80;96.70;;;;;;5018023;28;20033;-44
2022/06/23 08:06:17;;;;;;;9.38;4.63;;;23.20;95.80;;;;;;5027627;28;20021;-48
2022/06/23 08:08:44;;;;;;;7.95;4.60;;;23.50;94.40;;;;;;5027364;28;20083;-48
2022/06/23 08:14:08;;;;;;;6.18;3.78;;;24.90;92.70;;;;;;5013713;28;20506;-45
2022/06/23 08:16:49;;;;;;;5.45;3.70;;;26.30;89.90;;;;;;5021819;28;20553;-45
2022/06/23 08:19:36;;;;;;;5.75;3.45;;;28.20;83.10;;;;;;5023813;28;20029;-47
2022/06/23 08:22:07;;;;;;;4.97;3.22;;;29.40;75.50;;;;;;5014117;28;20030;-47
2022/06/23 08:24:36;;;;;;;5.93;3.53;;;30.50;69.50;;;;;;5016385;28;20028;-46
2022/06/23 08:27:14;;;;;;;5.18;3.33;;;31.60;64.50;;;;;;5021080;28;20022;-47
2022/06/23 08:29:47;;;;;;;7.00;3.10;;;31.70;62.60;;;;;;5019098;28;20484;-47
2022/06/23 08:32:13;;;;;;;3.08;2.78;;;32.80;60.20;;;;;;5023844;28;20033;-45
2022/06/23 08:35:02;;;;;;;7.35;3.15;;;33.50;58.20;;;;;;5028855;28;20021;-45
2022/06/23 08:37:34;;;;;;;4.17;2.70;;;33.80;56.70;;;;;;5028528;28;20096;-46
2022/06/23 08:40:21;;;;;;;5.22;2.97;;;34.90;53.50;;;;;;5028208;28;20025;-47
2022/06/23 08:43:01;;;;;;;5.28;2.58;;;35.20;52.50;;;;;;5028844;28;20056;-47
2022/06/23 08:45:40;;;;;;;4.72;2.63;;;35.10;51.90;;;;;;5028231;28;20029;-48
2022/06/23 08:48:14;;;;;;;4.60;2.35;;;35.90;49.50;;;;;;5028838;28;20029;-48
2022/06/23 08:50:45;;;;;;;3.28;2.35;;;36.00;49.20;;;;;;5021020;28;20030;-45
2022/06/23 08:53:35;;;;;;;3.70;2.20;;;37.00;49.00;;;;;;5008839;28;20240;-47
2022/06/23 08:56:11;;;;;;;6.47;2.70;;;37.90;46.80;;;;;;5009034;28;20395;-47
2022/06/23 08:58:47;;;;;;;4.45;2.53;;;38.80;45.20;;;;;;5009177;28;20074;-47
2022/06/23 09:01:21;;;;;;;4.57;2.22;;;38.80;44.10;;;;;;5008290;28;20354;-47
2022/06/23 09:03:57;;;;;;;5.53;2.08;;;39.20;43.10;;;;;;5011409;28;20463;-46
2022/06/23 09:06:58;;;;;;;3.67;2.22;;;39.70;42.50;;;;;;5009596;28;20029;-47
2022/06/23 09:10:02;;;;;;;3.28;2.38;;;39.40;42.60;;;;;;5010718;28;20038;-47
2022/06/23 09:12:47;;;;;;;5.22;2.40;;;39.80;42.60;;;;;;5029233;28;20045;-47
2022/06/23 09:15:34;;;;;;;5.95;2.60;;;40.70;41.30;;;;;;5023851;28;20022;-46
2022/06/23 09:18:35;;;;;;;3.72;2.20;;;40.40;41.40;;;;;;5031288;28;20030;-46
2022/06/23 09:21:13;;;;;;;2.75;2.20;;;40.00;41.10;;;;;;5031629;28;20041;-48
2022/06/23 09:24:00;;;;;;;3.53;2.00;;;40.50;41.80;;;;;;5027930;28;20044;-48
2022/06/23 09:26:43;;;;;;;4.28;2.28;;;41.10;40.30;;;;;;5029372;28;20033;-47
2022/06/23 09:29:36;;;;;;;6.95;2.35;;;40.90;40.80;;;;;;5012256;28;20368;-46
2022/06/23 09:32:18;;;;;;;4.22;1.80;;;41.40;39.50;;;;;;5013725;28;20487;-48
2022/06/23 09:34:57;;;;;;;4.47;2.20;;;41.30;38.60;;;;;;5032415;28;20029;-47
2022/06/23 09:37:50;;;;;;;3.20;2.13;;;41.30;39.20;;;;;;5031864;28;20030;-47
2022/06/23 09:40:42;;;;;;;5.82;1.80;;;41.40;37.90;;;;;;5031559;28;20029;-46
2022/06/23 09:43:22;;;;;;;4.05;1.88;;;42.20;37.10;;;;;;5031290;28;20037;-49
2022/06/23 09:46:01;;;;;;;2.20;1.83;;;42.10;36.30;;;;;;5017852;28;20427;-47
2022/06/23 09:48:53;;;;;;;4.47;1.95;;;42.40;37.10;;;;;;5015397;28;20280;-47
2022/06/23 09:51:32;;;;;;;5.38;1.77;;;41.80;36.60;;;;;;5012289;28;20064;-47
2022/06/23 09:54:25;;;;;;;4.63;2.20;;;42.10;36.80;;;;;;5014512;28;20029;-47
2022/06/23 09:57:25;;;;;;;5.93;2.05;;;43.10;35.70;;;;;;5031183;28;20029;-47
2022/06/23 10:00:17;;;;;;;5.15;2.47;;;41.50;36.30;;;;;;5030464;28;20562;-46
2022/06/23 10:03:30;;;;;;;4.95;2.03;;;41.90;36.00;;;;;;5030483;28;20463;-46
2022/06/23 10:06:25;;;;;;;3.25;2.22;;;41.50;36.50;;;;;;5030501;28;20053;-47
2022/06/23 10:09:00;;;;;;;5.10;1.60;;;42.20;36.30;;;;;;5032033;28;20403;-48
2022/06/23 10:11:51;;;;;;;3.92;1.98;;;42.20;35.20;;;;;;5031194;28;20032;-46
2022/06/23 10:14:51;;;;;;;2.40;1.50;;;42.60;35.30;;;;;;5031485;28;20051;-46
2022/06/23 10:17:38;;;;;;;5.03;1.70;;;43.10;34.90;;;;;;5030958;28;20060;-46
2022/06/23 10:20:04;;;;;;;4.15;1.30;;;43.10;34.60;;;;;;5031114;28;20052;-47
2022/06/23 10:22:48;;;;;;;4.68;1.55;;;42.70;36.20;;;;;;5031185;28;20467;-47
2022/06/23 10:25:46;;;;;;;2.08;1.60;;;42.00;34.30;;;;;;5031483;28;20037;-49
2022/06/23 10:28:34;;;;;;;3.50;1.80;;;42.70;35.10;;;;;;5030791;28;20013;-46
2022/06/23 10:31:20;;;;;;;5.05;1.52;;;43.00;34.50;;;;;;5030495;28;20067;-50
2022/06/23 10:34:16;;;;;;;5.50;1.83;;;43.30;34.10;;;;;;5031008;28;20018;-46
2022/06/23 10:37:05;;;;;;;2.45;1.50;;;42.60;35.10;;;;;;5029339;28;20495;-50
2022/06/23 10:39:49;;;;;;;;;;;43.30;34.60;;;;;;5030442;28;20064;-48
2022/06/23 10:42:21;;;;;;;3.50;1.60;;;42.90;34.10;;;;;;5046364;28;20007;-48
2022/06/23 10:44:56;;;;;;;2.65;1.58;;;43.30;34.30;;;;;;5029475;28;20289;-47
2022/06/23 10:47:52;;;;;;;2.10;1.50;;;43.40;34.50;;;;;;5031008;28;20024;-47
2022/06/23 10:50:36;;;;;;;7.60;2.10;;;43.40;34.10;;;;;;5029861;28;20017;-49
2022/06/23 10:53:05;;;;;;;3.28;1.63;;;41.80;33.60;;;;;;5030472;28;20052;-47
2022/06/23 10:55:41;;;;;;;;;;;41.80;33.90;;;;;;5031179;28;20043;-46
2022/06/23 10:58:38;;;;;;;2.42;1.75;;;41.60;34.30;;;;;;5030277;28;19905;-46
2022/06/23 11:01:37;;;;;;;1.85;1.48;;;41.70;35.00;;;;;;5030003;28;20114;-47
2022/06/23 11:04:17;;;;;;;3.20;1.70;;;42.60;34.30;;;;;;5030698;28;20029;-46
2022/06/23 11:07:04;;;;;;;1.73;1.50;;;41.70;34.20;;;;;;5030137;28;20033;-46
2022/06/23 11:09:54;;;;;;;3.75;1.65;;;42.10;33.80;;;;;;5030397;28;20026;-49
2022/06/23 11:12:35;;;;;;;2.28;1.55;;;42.30;34.00;;;;;;5030043;28;20033;-46
2022/06/23 11:15:42;;;;;;;2.40;1.50;;;42.60;33.90;;;;;;5030840;28;20017;-47
2022/06/23 11:18:29;;;;;;;2.10;1.40;;;43.10;33.30;;;;;;5030212;28;20387;-50
2022/06/23 11:21:03;;;;;;;3.78;1.50;;;42.90;33.20;;;;;;5029358;28;20029;-48
2022/06/23 11:23:57;;;;;;;5.70;1.70;;;43.40;33.00;;;;;;5028869;28;20506;-48
2022/06/23 11:26:46;;;;;;;3.67;1.33;;;43.80;32.60;;;;;;5028648;28;20324;-47
2022/06/23 11:29:34;;;;;;;3.47;1.40;;;43.30;32.90;;;;;;5029193;28;20025;-46
2022/06/23 11:32:17;;;;;;;2.13;1.60;;;43.60;32.90;;;;;;5030547;28;20482;-49
2022/06/23 11:35:23;;;;;;;7.40;1.60;;;43.10;32.80;;;;;;5015203;28;20053;-46
2022/06/23 11:38:09;;;;;;;5.28;1.60;;;40.60;33.70;;;;;;5010393;28;20053;-45
2022/06/23 11:40:55;;;;;;;3.75;1.98;;;41.50;34.30;;;;;;5009584;28;20087;-45
2022/06/23 11:43:29;;;;;;;4.80;1.83;;;39.00;34.70;;;;;;5010118;28;20136;-46
2022/06/23 11:46:19;;;;;;;3.85;2.08;;;39.20;35.00;;;;;;5009986;28;20092;-46
2022/06/23 11:48:59;;;;;;;3.05;2.00;;;39.70;34.50;;;;;;5009968;28;20026;-47
2022/06/23 11:51:42;;;;;;;6.65;1.70;;;38.90;35.00;;;;;;5010873;28;20018;-48
2022/06/23 11:54:28;;;;;;;3.67;1.90;;;39.40;35.40;;;;;;5015712;28;20032;-46
2022/06/23 11:57:31;;;;;;;3.30;1.95;;;40.60;35.10;;;;;;5009933;28;20561;-46
2022/06/23 12:00:13;;;;;;;2.90;1.50;;;40.70;34.90;;;;;;5013194;28;20048;-46
2022/06/23 12:03:01;;;;;;;4.50;2.25;;;40.10;34.90;;;;;;5009816;28;20510;-45
2022/06/23 12:05:43;;;;;;;2.90;1.73;;;39.90;35.20;;;;;;5018757;28;20029;-46
2022/06/23 12:08:38;;;;;;;5.60;1.95;;;38.60;35.70;;;;;;5028771;28;20033;-48
2022/06/23 12:11:04;;;;;;;3.72;2.03;;;38.30;36.10;;;;;;5028594;28;20083;-49
2022/06/23 12:13:31;;;;;;;4.28;1.90;;;38.10;38.10;;;;;;5029191;28;20490;-45
2022/06/23 12:15:57;;;;;;;2.97;1.95;;;37.90;37.10;;;;;;5029435;28;20075;-47
2022/06/23 12:18:39;;;;;;;4.10;2.13;;;37.70;37.40;;;;;;5021698;28;20487;-46
2022/06/23 12:21:25;;;;;;;5.15;1.95;;;37.20;37.80;;;;;;5028539;28;20545;-45
2022/06/23 12:24:05;;;;;;;3.78;2.20;;;36.80;38.10;;;;;;5029042;28;20483;-45
2022/06/23 12:27:00;;;;;;;3.05;2.10;;;36.80;38.40;;;;;;5028623;28;20120;-47
2022/06/23 12:29:33;;;;;;;4.25;2.20;;;36.50;38.30;;;;;;5015893;28;20038;-46
2022/06/23 12:32:21;;;;;;;3.75;2.10;;;36.40;38.50;;;;;;5021069;28;20029;-47
2022/06/23 12:35:09;;;;;;;4.72;2.08;;;36.20;37.50;;;;;;5027288;28;20383;-46
2022/06/23 12:38:11;;;;;;;3.30;2.10;;;36.20;38.70;;;;;;5028865;28;20017;-49
2022/06/23 12:40:46;;;;;;;6.55;2.47;;;36.40;38.20;;;;;;5025030;28;20025;-47
2022/06/23 12:43:21;;;;;;;5.63;2.25;;;36.20;38.70;;;;;;5028655;28;20075;-49
2022/06/23 12:46:12;;;;;;;4.55;2.50;;;36.20;37.90;;;;;;5028683;28;20394;-45
2022/06/23 12:49:00;;;;;;;5.45;2.20;;;35.80;38.40;;;;;;5012378;28;20102;-49
2022/06/23 12:51:41;;;;;;;2.83;1.95;;;35.70;40.20;;;;;;5008742;28;20423;-47
2022/06/23 12:54:11;;;;;;;7.90;2.20;;;35.90;39.00;;;;;;5008783;28;20021;-46
2022/06/23 12:57:02;;;;;;;3.75;2.58;;;35.80;39.50;;;;;;5013801;28;20108;-45
2022/06/23 12:59:55;;;;;;;3.55;2.38;;;35.80;39.80;;;;;;5011564;28;20222;-48
2022/06/23 13:02:33;;;;;;;4.80;2.13;;;35.80;39.30;;;;;;5017500;28;20273;-45
2022/06/23 13:05:22;;;;;;;2.70;1.80;;;35.80;39.60;;;;;;5014426;28;20034;-47
2022/06/23 13:08:12;;;;;;;4.95;2.00;;;35.60;38.10;;;;;;5008926;28;20026;-45
2022/06/23 13:10:52;;;;;;;3.58;2.28;;;35.50;38.30;;;;;;5007595;28;20479;-44
2022/06/23 13:13:37;;;;;;;4.18;2.25;;;34.60;38.30;;;;;;5016137;28;20041;-45
2022/06/23 13:16:10;;;;;;;3.90;2.17;;;34.80;39.00;;;;;;5019066;28;20024;-45
2022/06/23 13:18:42;;;;;;;3.38;2.17;;;34.90;39.50;;;;;;5022869;28;20083;-45
2022/06/23 13:21:13;;;;;;;5.43;2.47;;;34.80;38.60;;;;;;5018536;28;20416;-45
2022/06/23 13:23:49;;;;;;;5.97;2.42;;;34.90;39.60;;;;;;5019183;28;20025;-46
2022/06/23 13:26:28;;;;;;;5.43;2.17;;;34.90;39.40;;;;;;5018594;28;20501;-44
2022/06/23 13:29:14;;;;;;;6.28;2.40;;;35.10;39.10;;;;;;5022144;28;20394;-45
2022/06/23 13:31:47;;;;;;;3.72;2.03;;;35.10;38.80;;;;;;5015560;28;20054;-45
2022/06/23 13:34:20;;;;;;;5.32;2.10;;;35.10;39.00;;;;;;5013785;28;20029;-45
2022/06/23 13:36:59;;;;;;;5.53;2.13;;;35.20;39.10;;;;;;5018764;28;20076;-45
2022/06/23 13:40:00;;;;;;;4.47;2.08;;;35.30;38.30;;;;;;5018701;28;20025;-45
2022/06/23 13:43:04;;;;;;;3.22;2.28;;;35.40;38.80;;;;;;5024208;28;20514;-46
2022/06/23 13:45:44;;;;;;;2.70;2.00;;;35.40;38.40;;;;;;5010848;28;20335;-48
2022/06/23 13:48:29;;;;;;;4.10;2.10;;;35.30;38.10;;;;;;5009722;28;20030;-46
2022/06/23 13:51:05;;;;;;;5.55;1.90;;;35.30;37.50;;;;;;5018292;28;20024;-49
2022/06/23 13:53:40;;;;;;;4.60;1.90;;;35.40;38.40;;;;;;5017791;28;20045;-45
2022/06/23 13:56:16;;;;;;;4.03;1.80;;;35.40;37.90;;;;;;5023114;28;20421;-45
2022/06/23 13:58:58;;;;;;;3.28;2.00;;;35.30;37.70;;;;;;5031419;28;20032;-44